createdAt,value
2018-07-06T09:47:21.092Z,101200.60
2018-07-06T09:49:49.764Z,101197.56
2018-07-06T09:52:18.466Z,101205.47
2018-07-06T09:56:44.957Z,101204.05
2018-07-06T09:59:13.692Z,101196.80
2018-07-06T10:01:56.565Z,101192.07
2018-07-06T10:04:25.257Z,101193.78
2018-07-06T10:06:53.886Z,101204.64
2018-07-06T10:09:22.484Z,101205.89
2018-07-06T10:11:58.789Z,101203.02
2018-07-06T10:14:27.377Z,101199.71
2018-07-06T10:16:56.017Z,101195.29
2018-07-06T10:19:24.746Z,101194.66
2018-07-06T10:22:12.047Z,101193.50
2018-07-06T10:24:40.612Z,101201.13
2018-07-06T10:27:09.419Z,101200.34
2018-07-06T10:30:04.006Z,101197.58
2018-07-06T10:32:42.894Z,101191.50
2018-07-06T10:35:11.637Z,101194.14
2018-07-06T10:37:40.329Z,101199.49
2018-07-06T10:40:09.089Z,101205.23
2018-07-06T10:42:38.770Z,101189.47
2018-07-06T10:45:07.445Z,101198.79
2018-07-06T10:47:36.047Z,101209.11
2018-07-06T10:50:04.697Z,101200.31
2018-07-06T10:52:38.971Z,101190.11
2018-07-06T10:55:07.607Z,101198.34
2018-07-06T10:57:36.320Z,101196.41
2018-07-06T11:00:05.002Z,101204.50
2018-07-06T11:02:42.142Z,101195.43
2018-07-06T11:05:10.880Z,101193.79
2018-07-06T11:07:39.511Z,101197.42
2018-07-06T11:10:08.203Z,101195.20
2018-07-06T11:12:39.078Z,101193.63
2018-07-06T11:15:07.786Z,101194.36
2018-07-06T11:17:36.466Z,101194.91
2018-07-06T11:20:05.059Z,101201.43
2018-07-06T11:22:50.635Z,101197.80
2018-07-06T11:25:19.230Z,101207.92
2018-07-06T11:27:48.381Z,101197.10
2018-07-06T11:30:17.044Z,101195.77
2018-07-06T11:32:55.072Z,101197.70
2018-07-06T11:35:23.837Z,101190.78
2018-07-06T11:37:52.459Z,101208.81
2018-07-06T11:40:21.250Z,101196.02
2018-07-06T11:42:49.927Z,101196.89
2018-07-06T11:45:18.600Z,101200.14
2018-07-06T11:47:47.327Z,101214.91
2018-07-06T11:50:15.994Z,101195.68
2018-07-06T11:53:01.458Z,101195.55
2018-07-06T11:55:30.231Z,101191.72
2018-07-06T11:57:58.874Z,101199.42
2018-07-06T12:00:27.614Z,101201.68
2018-07-06T12:03:22.830Z,101195.30
2018-07-06T12:05:51.498Z,101194.88
2018-07-06T12:08:20.213Z,101194.14
2018-07-06T12:10:48.926Z,101199.55
2018-07-06T12:13:22.158Z,101199.58
2018-07-06T12:15:51.896Z,101177.84
2018-07-06T12:18:20.612Z,101201.14
2018-07-06T12:20:49.272Z,101194.06
2018-07-06T12:23:26.124Z,101188.38
2018-07-06T12:25:54.735Z,101196.97
2018-07-06T12:28:23.399Z,101196.23
2018-07-06T12:30:51.992Z,101195.17
2018-07-06T12:33:24.013Z,101194.14
2018-07-06T12:35:52.720Z,101187.59
2018-07-06T12:38:21.471Z,101183.69
2018-07-06T12:40:50.101Z,101179.45
2018-07-06T12:43:21.890Z,101173.06
2018-07-06T12:45:50.519Z,101175.09
2018-07-06T12:48:19.248Z,101169.34
2018-07-06T12:50:47.857Z,101169.33
2018-07-06T12:53:17.451Z,101161.21
2018-07-06T12:55:46.121Z,101157.58
2018-07-06T12:58:14.844Z,101170.41
2018-07-06T13:00:44.132Z,101169.48
2018-07-06T13:03:20.067Z,101165.94
2018-07-06T13:05:48.794Z,101170.31
2018-07-06T13:08:17.466Z,101170.47
2018-07-06T13:10:46.080Z,101169.00
2018-07-06T13:13:14.707Z,101166.63
2018-07-06T13:15:43.381Z,101170.60
2018-07-06T13:18:11.979Z,101168.86
2018-07-06T13:20:40.670Z,101170.88
2018-07-06T13:23:09.506Z,101177.14
2018-07-06T13:25:38.109Z,101179.85
2018-07-06T13:28:07.030Z,101175.15
2018-07-06T13:30:35.621Z,101178.03
2018-07-06T13:33:12.173Z,101189.58
2018-07-06T13:35:40.804Z,101183.75
2018-07-06T13:38:09.441Z,101170.60
2018-07-06T13:40:38.034Z,101167.43
2018-07-06T13:43:10.767Z,101159.27
2018-07-06T13:45:39.342Z,101167.20
2018-07-06T13:48:08.033Z,101180.88
2018-07-06T13:50:36.598Z,101187.59
2018-07-06T13:53:19.867Z,101181.14
2018-07-06T13:55:48.466Z,101181.05
2018-07-06T13:58:17.293Z,101194.31
2018-07-06T14:00:45.861Z,101196.27
2018-07-06T14:03:28.135Z,101187.61
2018-07-06T14:05:57.009Z,101192.22
2018-07-06T14:08:25.591Z,101190.95
2018-07-06T14:10:54.436Z,101194.21
2018-07-06T14:13:30.613Z,101193.85
2018-07-06T14:15:59.610Z,101202.41
2018-07-06T14:18:28.535Z,101186.97
2018-07-06T14:20:57.290Z,101191.45
2018-07-06T14:23:33.671Z,101197.81
2018-07-06T14:26:02.509Z,101194.86
2018-07-06T14:28:31.470Z,101188.19
2018-07-06T14:31:00.174Z,101188.19
2018-07-06T14:33:42.754Z,101194.88
2018-07-06T14:36:11.706Z,101200.36
2018-07-06T14:38:40.607Z,101198.95
2018-07-06T14:41:09.379Z,101190.88
2018-07-06T14:43:42.684Z,101190.43
2018-07-06T14:46:11.620Z,101193.32
2018-07-06T14:48:40.564Z,101215.35
2018-07-06T14:51:09.462Z,101202.67
2018-07-06T14:53:59.584Z,101196.73
2018-07-06T14:56:29.665Z,101200.88
2018-07-06T14:58:58.644Z,101206.68
2018-07-06T15:01:27.582Z,101202.20
2018-07-06T15:03:58.349Z,101198.41
2018-07-06T15:06:27.013Z,101206.37
2018-07-06T15:08:56.814Z,101209.24
2018-07-06T15:11:25.418Z,101215.00
2018-07-06T15:13:54.223Z,101221.67
2018-07-06T15:16:22.812Z,101221.36
2018-07-06T15:18:51.395Z,101233.05
2018-07-06T15:21:19.969Z,101223.77
2018-07-06T15:23:49.648Z,101217.36
2018-07-06T15:26:18.355Z,101224.03
2018-07-06T15:28:47.046Z,101216.03
2018-07-06T15:31:15.848Z,101219.55
2018-07-06T15:33:44.503Z,101221.73
2018-07-06T15:36:39.802Z,101228.70
2018-07-06T15:39:08.526Z,101238.31
2018-07-06T15:41:37.233Z,101233.78
2018-07-06T15:44:05.954Z,101224.33
2018-07-06T15:46:34.679Z,101227.14
2018-07-06T15:49:03.434Z,101230.79
2018-07-06T15:51:32.040Z,101222.25
2018-07-06T15:54:00.732Z,101223.17
2018-07-06T15:56:31.387Z,101223.80
2018-07-06T15:58:59.950Z,101217.31
2018-07-06T16:01:28.536Z,101222.91
2018-07-06T16:03:57.186Z,101221.99
2018-07-06T16:06:33.195Z,101212.25
2018-07-06T16:09:01.943Z,101216.84
2018-07-06T16:11:30.543Z,101230.23
2018-07-06T16:13:59.156Z,101223.55
2018-07-06T16:16:27.923Z,101226.00
2018-07-06T16:18:56.623Z,101221.95
2018-07-06T16:21:25.301Z,101221.88
2018-07-06T16:23:53.939Z,101223.30
2018-07-06T16:26:25.988Z,101230.91
2018-07-06T16:28:54.830Z,101226.23
2018-07-06T16:31:23.498Z,101218.61
2018-07-06T16:33:52.314Z,101218.03
2018-07-06T16:36:21.144Z,101227.42
2018-07-06T16:38:49.874Z,101218.03
2018-07-06T16:41:18.685Z,101218.70
2018-07-06T16:43:47.302Z,101218.21
2018-07-06T16:46:33.006Z,101212.89
2018-07-06T16:49:01.569Z,101219.25
2018-07-06T16:51:30.142Z,101219.10
2018-07-06T16:53:58.761Z,101221.27
2018-07-06T16:56:48.284Z,101228.98
2018-07-06T16:59:16.973Z,101232.63
2018-07-06T17:01:45.708Z,101227.12
2018-07-06T17:04:14.269Z,101233.41
2018-07-06T17:06:43.075Z,101236.31
2018-07-06T17:09:11.841Z,101237.79
2018-07-06T17:11:40.462Z,101239.41
2018-07-06T17:14:09.119Z,101237.31
2018-07-06T17:16:37.882Z,101238.25
2018-07-06T17:19:06.437Z,101232.91
2018-07-06T17:21:35.145Z,101238.52
2018-07-06T17:24:03.853Z,101236.99
2018-07-06T17:26:32.514Z,101239.69
2018-07-06T17:29:01.209Z,101242.97
2018-07-06T17:31:30.008Z,101250.22
2018-07-06T17:33:58.691Z,101248.34
2018-07-06T17:36:27.454Z,101255.35
2018-07-06T17:38:56.024Z,101249.03
2018-07-06T17:41:24.839Z,101237.90
2018-07-06T17:43:53.721Z,101242.84
2018-07-06T17:46:23.399Z,101236.78
2018-07-06T17:48:52.088Z,101235.96
2018-07-06T17:51:20.821Z,101231.81
2018-07-06T17:53:49.472Z,101232.70
2018-07-06T17:56:18.320Z,101241.91
2018-07-06T17:58:46.869Z,101248.02
2018-07-06T18:01:15.551Z,101238.17
2018-07-06T18:03:44.334Z,101251.99
2018-07-06T18:06:12.914Z,101242.95
2018-07-06T18:08:42.656Z,101248.04
2018-07-06T18:11:11.371Z,101245.15
2018-07-06T18:13:40.063Z,101250.47
2018-07-06T18:16:08.911Z,101256.91
2018-07-06T18:18:37.541Z,101251.32
2018-07-06T18:21:06.218Z,101250.66
2018-07-06T18:23:35.008Z,101261.59
2018-07-06T18:26:03.753Z,101254.03
2018-07-06T18:28:32.358Z,101260.35
2018-07-06T18:31:01.106Z,101259.88
2018-07-06T18:33:29.806Z,101258.27
2018-07-06T18:35:58.542Z,101260.03
2018-07-06T18:38:27.178Z,101259.36
2018-07-06T18:40:55.858Z,101263.61
2018-07-06T18:43:24.399Z,101267.36
2018-07-06T18:45:53.041Z,101269.64
2018-07-06T18:48:21.741Z,101279.77
2018-07-06T18:50:50.425Z,101274.16
2018-07-06T18:53:18.944Z,101278.37
2018-07-06T18:55:47.659Z,101272.11
2018-07-06T18:58:16.222Z,101279.23
2018-07-06T19:00:45.026Z,101278.97
2018-07-06T19:03:13.546Z,101286.41
2018-07-06T19:05:42.258Z,101285.08
2018-07-06T19:08:10.909Z,101287.73
2018-07-06T19:10:39.694Z,101290.66
2018-07-06T19:13:08.371Z,101299.47
2018-07-06T19:15:37.044Z,101300.88
2018-07-06T19:18:05.885Z,101296.78
2018-07-06T19:20:34.538Z,101311.17
2018-07-06T19:23:03.275Z,101307.93
2018-07-06T19:25:31.925Z,101312.72
2018-07-06T19:28:00.569Z,101311.96
2018-07-06T19:30:29.154Z,101314.23
2018-07-06T19:32:57.874Z,101320.30
2018-07-06T19:35:26.510Z,101321.05
2018-07-06T19:37:55.066Z,101327.07
2018-07-06T19:40:23.633Z,101329.08
2018-07-06T19:42:52.546Z,101335.55
2018-07-06T19:45:21.272Z,101338.75
2018-07-06T19:47:49.983Z,101342.44
2018-07-06T19:50:18.538Z,101350.34
2018-07-06T19:52:47.195Z,101350.55
2018-07-06T19:55:16.980Z,101357.90
2018-07-06T19:57:45.684Z,101358.54
2018-07-06T20:00:14.340Z,101371.91
2018-07-06T20:02:42.861Z,101368.23
2018-07-06T20:05:11.618Z,101375.86
2018-07-06T20:07:40.276Z,101374.23
2018-07-06T20:10:08.793Z,101381.27
2018-07-06T20:12:37.446Z,101378.94
2018-07-06T20:15:06.115Z,101384.41
2018-07-06T20:17:35.761Z,101384.07
2018-07-06T20:20:04.509Z,101385.98
2018-07-06T20:22:33.215Z,101381.46
2018-07-06T20:25:01.754Z,101385.52
2018-07-06T20:27:30.466Z,101390.80
2018-07-06T20:29:59.084Z,101387.14
2018-07-06T20:32:27.751Z,101393.19
2018-07-06T20:34:56.449Z,101402.12
2018-07-06T20:37:25.090Z,101408.12
2018-07-06T20:39:53.616Z,101406.81
2018-07-06T20:42:22.488Z,101402.11
2018-07-06T20:44:51.265Z,101410.11
2018-07-06T20:47:20.024Z,101410.88
2018-07-06T20:49:48.709Z,101418.70
2018-07-06T20:52:17.527Z,101420.47
2018-07-06T20:54:47.150Z,101424.45
2018-07-06T20:57:15.910Z,101425.66
2018-07-06T20:59:44.547Z,101418.47
2018-07-06T21:02:13.274Z,101423.07
2018-07-06T21:04:41.862Z,101427.22
2018-07-06T21:07:10.495Z,101435.09
2018-07-06T21:09:39.112Z,101427.38
2018-07-06T21:12:07.833Z,101437.81
2018-07-06T21:14:36.480Z,101438.13
2018-07-06T21:17:05.235Z,101431.80
2018-07-06T21:19:33.966Z,101441.46
2018-07-06T21:22:02.805Z,101445.08
2018-07-06T21:24:31.574Z,101445.08
2018-07-06T21:27:00.247Z,101445.44
2018-07-06T21:29:28.812Z,101451.59
2018-07-06T21:31:57.518Z,101446.41
2018-07-06T21:34:26.211Z,101443.17
2018-07-06T21:36:54.841Z,101450.04
2018-07-06T21:39:23.420Z,101455.04
2018-07-06T21:41:52.077Z,101459.32
2018-07-06T21:44:20.695Z,101461.10
2018-07-06T21:46:49.330Z,101458.13
2018-07-06T21:49:18.059Z,101454.34
2018-07-06T21:51:46.779Z,101452.95
2018-07-06T21:54:15.316Z,101460.27
2018-07-06T21:56:44.028Z,101465.64
2018-07-06T21:59:12.784Z,101470.78
2018-07-06T22:01:41.344Z,101463.60
2018-07-06T22:04:10.044Z,101464.03
2018-07-06T22:06:38.713Z,101458.92
2018-07-06T22:09:08.599Z,101463.22
2018-07-06T22:11:37.318Z,101468.45
2018-07-06T22:14:05.923Z,101459.91
2018-07-06T22:16:34.509Z,101458.61
2018-07-06T22:19:03.225Z,101463.86
2018-07-06T22:21:31.830Z,101463.90
2018-07-06T22:24:00.467Z,101466.82
2018-07-06T22:26:29.115Z,101467.17
2018-07-06T22:28:57.769Z,101469.86
2018-07-06T22:31:26.493Z,101468.73
2018-07-06T22:33:55.149Z,101478.19
2018-07-06T22:36:23.800Z,101471.34
2018-07-06T22:38:53.617Z,101472.49
2018-07-06T22:41:22.298Z,101477.67
2018-07-06T22:43:51.088Z,101475.48
2018-07-06T22:46:19.775Z,101477.43
2018-07-06T22:48:48.470Z,101473.91
2018-07-06T22:51:17.035Z,101473.74
2018-07-06T22:53:45.762Z,101475.23
2018-07-06T22:56:14.385Z,101469.56
2018-07-06T22:58:43.033Z,101472.72
2018-07-06T23:01:11.625Z,101471.37
2018-07-06T23:03:40.343Z,101477.69
2018-07-06T23:06:09.008Z,101474.84
2018-07-06T23:08:37.647Z,101478.76
2018-07-06T23:11:06.179Z,101475.19
2018-07-06T23:13:34.849Z,101478.84
2018-07-06T23:16:03.565Z,101476.81
2018-07-06T23:18:32.203Z,101477.94
2018-07-06T23:21:00.719Z,101476.02
2018-07-06T23:23:29.438Z,101474.90
2018-07-06T23:25:58.070Z,101477.55
2018-07-06T23:28:26.762Z,101476.10
2018-07-06T23:30:56.415Z,101483.69
2018-07-06T23:33:25.054Z,101479.42
2018-07-06T23:35:53.713Z,101474.25
2018-07-06T23:38:26.046Z,101477.66
2018-07-06T23:40:54.712Z,101484.50
2018-07-06T23:43:23.385Z,101485.73
2018-07-06T23:45:52.024Z,101487.06
2018-07-06T23:48:20.772Z,101488.00
2018-07-06T23:50:49.446Z,101480.14
2018-07-06T23:53:17.979Z,101483.13
2018-07-06T23:55:46.615Z,101479.63
2018-07-06T23:58:15.388Z,101482.12
